createdAt,value
2016-10-10T00:00:03.339Z,1014.21
2016-10-10T00:01:03.459Z,1014.18
2016-10-10T00:02:03.587Z,1014.16
2016-10-10T00:03:03.671Z,1014.15
2016-10-10T00:04:03.566Z,1014.19
2016-10-10T00:05:03.528Z,1014.17
2016-10-10T00:06:03.672Z,1014.2
2016-10-10T00:07:03.574Z,1014.18
2016-10-10T00:08:03.637Z,1014.19
2016-10-10T00:09:03.627Z,1014.17
2016-10-10T00:10:03.505Z,1014.14
2016-10-10T00:11:03.666Z,1014.17
2016-10-10T00:12:03.563Z,1014.16
2016-10-10T00:13:03.799Z,1014.11
2016-10-10T00:14:03.877Z,1014.16
2016-10-10T00:15:03.587Z,1014.15
2016-10-10T00:16:03.801Z,1014.15
2016-10-10T00:17:03.613Z,1014.12
2016-10-10T00:18:03.713Z,1014.12
2016-10-10T00:19:03.956Z,1014.14
2016-10-10T00:20:03.852Z,1014.15
2016-10-10T00:21:03.881Z,1014.15
2016-10-10T00:22:03.970Z,1014.14
2016-10-10T00:23:03.885Z,1014.1
2016-10-10T00:24:03.959Z,1014.14
2016-10-10T00:25:04.029Z,1014.13
2016-10-10T00:26:03.908Z,1014.11
2016-10-10T00:27:03.854Z,1014.11
2016-10-10T00:28:04.264Z,1014.14
2016-10-10T00:29:04.033Z,1014.09
2016-10-10T00:30:03.985Z,1014.12
2016-10-10T00:31:04.199Z,1014.12
2016-10-10T00:32:04.123Z,1014.13
2016-10-10T00:33:04.183Z,1014.15
2016-10-10T00:34:04.018Z,1014.13
2016-10-10T00:35:03.916Z,1014.09
2016-10-10T00:36:04.183Z,1014.13
2016-10-10T00:37:04.030Z,1014.11
2016-10-10T00:38:04.164Z,1014.13
2016-10-10T00:39:04.189Z,1014.11
2016-10-10T00:40:04.098Z,1014.1
2016-10-10T00:41:04.504Z,1014.07
2016-10-10T00:42:04.164Z,1014.05
2016-10-10T00:43:04.125Z,1014.09
2016-10-10T00:44:04.236Z,1014.02
2016-10-10T00:45:04.390Z,1014.05
2016-10-10T00:46:04.273Z,1014.02
2016-10-10T00:47:04.509Z,1014.09
2016-10-10T00:48:04.777Z,1014.07
2016-10-10T00:49:04.218Z,1014.09
2016-10-10T00:50:04.348Z,1014.05
2016-10-10T00:51:04.428Z,1014.07
2016-10-10T00:52:04.747Z,1014.03
2016-10-10T00:53:04.569Z,1014.05
2016-10-10T00:54:04.426Z,1014.02
2016-10-10T00:55:04.379Z,1014.03
2016-10-10T00:56:04.437Z,1014
2016-10-10T00:57:04.586Z,1013.99
2016-10-10T00:58:04.501Z,1013.94
2016-10-10T00:59:04.538Z,1013.96
2016-10-10T01:00:04.845Z,1013.97
2016-10-10T01:01:04.385Z,1013.95
2016-10-10T01:02:04.645Z,1013.98
2016-10-10T01:03:04.442Z,1013.97
2016-10-10T01:04:04.484Z,1013.95
2016-10-10T01:05:04.513Z,1013.96
2016-10-10T01:06:04.434Z,1013.94
2016-10-10T01:07:04.687Z,1013.91
2016-10-10T01:08:04.546Z,1013.95
2016-10-10T01:09:04.539Z,1013.95
2016-10-10T01:10:04.666Z,1013.96
2016-10-10T01:11:04.714Z,1013.97
2016-10-10T01:12:04.826Z,1013.96
2016-10-10T01:13:04.626Z,1013.97
2016-10-10T01:14:04.730Z,1013.93
2016-10-10T01:15:04.715Z,1013.97
2016-10-10T01:16:04.731Z,1013.96
2016-10-10T01:17:04.940Z,1013.95
2016-10-10T01:18:05.168Z,1013.93
2016-10-10T01:19:04.809Z,1013.96
2016-10-10T01:20:04.844Z,1013.93
2016-10-10T01:21:05.039Z,1013.91
2016-10-10T01:22:04.842Z,1013.95
2016-10-10T01:23:04.802Z,1013.96
2016-10-10T01:24:05.106Z,1014
2016-10-10T01:25:05.008Z,1014
2016-10-10T01:26:04.975Z,1013.99
2016-10-10T01:27:04.999Z,1013.93
2016-10-10T01:28:05.072Z,1013.97
2016-10-10T01:29:04.951Z,1013.96
2016-10-10T01:30:04.849Z,1013.9
2016-10-10T01:31:05.015Z,1013.95
2016-10-10T01:32:05.215Z,1013.95
2016-10-10T01:33:05.140Z,1013.9
2016-10-10T01:34:04.993Z,1013.92
2016-10-10T01:35:04.979Z,1013.88
2016-10-10T01:36:05.108Z,1013.92
2016-10-10T01:37:05.171Z,1013.9
2016-10-10T01:38:05.170Z,1013.88
2016-10-10T01:39:05.030Z,1013.92
2016-10-10T01:40:05.100Z,1013.87
2016-10-10T01:41:05.077Z,1013.85
2016-10-10T01:42:05.269Z,1013.85
2016-10-10T01:43:05.174Z,1013.85
2016-10-10T01:44:05.135Z,1013.86
2016-10-10T01:45:05.429Z,1013.87
2016-10-10T01:46:05.411Z,1013.84
2016-10-10T01:47:05.310Z,1013.88
2016-10-10T01:48:05.401Z,1013.88
2016-10-10T01:49:05.572Z,1013.87
2016-10-10T01:50:05.230Z,1013.85
2016-10-10T01:51:05.473Z,1013.86
2016-10-10T01:52:05.553Z,1013.83
2016-10-10T01:53:05.390Z,1013.81
2016-10-10T01:54:05.498Z,1013.79
2016-10-10T01:55:05.444Z,1013.81
2016-10-10T01:56:05.469Z,1013.8
2016-10-10T01:57:05.683Z,1013.8
2016-10-10T01:58:05.793Z,1013.76
2016-10-10T01:59:05.468Z,1013.76
2016-10-10T02:00:05.609Z,1013.78
2016-10-10T02:01:05.624Z,1013.81
2016-10-10T02:02:05.433Z,1013.82
2016-10-10T02:03:05.486Z,1013.8
2016-10-10T02:04:05.590Z,1013.82
2016-10-10T02:05:05.809Z,1013.77
2016-10-10T02:06:05.612Z,1013.76
2016-10-10T02:07:05.583Z,1013.77
2016-10-10T02:08:05.564Z,1013.75
2016-10-10T02:09:05.584Z,1013.77
2016-10-10T02:10:05.656Z,1013.7
2016-10-10T02:11:05.681Z,1013.74
2016-10-10T02:12:05.955Z,1013.72
2016-10-10T02:13:05.889Z,1013.73
2016-10-10T02:14:06.133Z,1013.73
2016-10-10T02:15:05.928Z,1013.74
2016-10-10T02:16:05.656Z,1013.72
2016-10-10T02:17:06.112Z,1013.74
2016-10-10T02:18:06.116Z,1013.72
2016-10-10T02:19:05.804Z,1013.71
2016-10-10T02:20:05.883Z,1013.66
2016-10-10T02:21:05.937Z,1013.66
2016-10-10T02:22:05.836Z,1013.67
2016-10-10T02:23:05.843Z,1013.67
2016-10-10T02:24:05.737Z,1013.67
2016-10-10T02:25:06.071Z,1013.62
2016-10-10T02:26:05.805Z,1013.62
2016-10-10T02:27:06.006Z,1013.65
2016-10-10T02:28:05.911Z,1013.64
2016-10-10T02:29:06.014Z,1013.62
2016-10-10T02:30:06.064Z,1013.63
2016-10-10T02:31:06.014Z,1013.69
2016-10-10T02:32:06.074Z,1013.67
2016-10-10T02:33:06.299Z,1013.73
2016-10-10T02:34:06.048Z,1013.73
2016-10-10T02:35:06.295Z,1013.69
2016-10-10T02:36:06.206Z,1013.71
2016-10-10T02:37:06.091Z,1013.69
2016-10-10T02:38:06.318Z,1013.69
2016-10-10T02:39:06.288Z,1013.68
2016-10-10T02:40:06.075Z,1013.65
2016-10-10T02:41:06.207Z,1013.71
2016-10-10T02:42:06.284Z,1013.68
2016-10-10T02:43:06.472Z,1013.67
2016-10-10T02:44:06.257Z,1013.64
2016-10-10T02:45:06.827Z,1013.69
2016-10-10T02:46:06.166Z,1013.67
2016-10-10T02:47:06.182Z,1013.59
2016-10-10T02:48:06.297Z,1013.61
2016-10-10T02:49:06.363Z,1013.59
2016-10-10T02:50:06.417Z,1013.64
2016-10-10T02:51:06.503Z,1013.64
2016-10-10T02:52:06.386Z,1013.59
2016-10-10T02:53:06.256Z,1013.66
2016-10-10T02:54:06.237Z,1013.6
2016-10-10T02:55:06.323Z,1013.62
2016-10-10T02:56:06.404Z,1013.57
2016-10-10T02:57:06.482Z,1013.66
2016-10-10T02:58:06.478Z,1013.64
2016-10-10T02:59:06.416Z,1013.6
2016-10-10T03:00:07.341Z,1013.65
2016-10-10T03:01:06.454Z,1013.64
2016-10-10T03:02:06.832Z,1013.6
2016-10-10T03:03:06.774Z,1013.65
2016-10-10T03:04:06.714Z,1013.6
2016-10-10T03:05:06.555Z,1013.59
2016-10-10T03:06:06.481Z,1013.64
2016-10-10T03:07:06.550Z,1013.59
2016-10-10T03:08:06.690Z,1013.62
2016-10-10T03:09:06.593Z,1013.63
2016-10-10T03:10:06.764Z,1013.63
2016-10-10T03:11:06.928Z,1013.65
2016-10-10T03:12:06.930Z,1013.65
2016-10-10T03:13:06.825Z,1013.66
2016-10-10T03:14:06.710Z,1013.66
2016-10-10T03:15:06.824Z,1013.67
2016-10-10T03:16:06.700Z,1013.64
2016-10-10T03:17:07.074Z,1013.65
2016-10-10T03:18:06.787Z,1013.64
2016-10-10T03:19:06.830Z,1013.61
2016-10-10T03:20:06.812Z,1013.6
2016-10-10T03:21:06.775Z,1013.64
2016-10-10T03:22:06.705Z,1013.61
2016-10-10T03:23:06.764Z,1013.61
2016-10-10T03:24:06.980Z,1013.61
2016-10-10T03:25:06.846Z,1013.6
2016-10-10T03:26:06.893Z,1013.57
2016-10-10T03:27:06.923Z,1013.6
2016-10-10T03:28:06.970Z,1013.58
2016-10-10T03:29:06.823Z,1013.58
2016-10-10T03:30:07.311Z,1013.57
2016-10-10T03:31:07.907Z,1013.59
2016-10-10T03:32:07.028Z,1013.6
2016-10-10T03:33:06.955Z,1013.59
2016-10-10T03:34:07.224Z,1013.6
2016-10-10T03:35:07.085Z,1013.61
2016-10-10T03:36:07.012Z,1013.65
2016-10-10T03:37:07.250Z,1013.59
2016-10-10T03:38:07.272Z,1013.59
2016-10-10T03:39:07.082Z,1013.59
2016-10-10T03:40:07.635Z,1013.62
2016-10-10T03:41:07.066Z,1013.55
2016-10-10T03:42:07.316Z,1013.52
2016-10-10T03:43:07.246Z,1013.57
2016-10-10T03:44:07.407Z,1013.5
2016-10-10T03:45:07.495Z,1013.55
2016-10-10T03:46:07.129Z,1013.55
2016-10-10T03:47:07.376Z,1013.52
2016-10-10T03:48:07.255Z,1013.56
2016-10-10T03:49:07.323Z,1013.54
2016-10-10T03:50:07.529Z,1013.53
2016-10-10T03:51:07.547Z,1013.55
2016-10-10T03:52:07.519Z,1013.53
2016-10-10T03:53:07.629Z,1013.48
2016-10-10T03:54:07.455Z,1013.51
2016-10-10T03:55:07.600Z,1013.53
2016-10-10T03:56:07.401Z,1013.53
2016-10-10T03:57:07.331Z,1013.48
2016-10-10T03:58:07.399Z,1013.48
2016-10-10T03:59:07.451Z,1013.51
2016-10-10T04:00:07.404Z,1013.54
2016-10-10T04:01:07.750Z,1013.52
2016-10-10T04:02:07.598Z,1013.45
2016-10-10T04:03:07.931Z,1013.5
2016-10-10T04:04:07.849Z,1013.49
2016-10-10T04:05:07.522Z,1013.47
2016-10-10T04:06:07.688Z,1013.52
2016-10-10T04:07:07.454Z,1013.5
2016-10-10T04:08:07.464Z,1013.49
2016-10-10T04:09:07.530Z,1013.48
2016-10-10T04:10:07.702Z,1013.49
2016-10-10T04:11:07.668Z,1013.44
2016-10-10T04:12:07.718Z,1013.47
2016-10-10T04:13:07.680Z,1013.42
2016-10-10T04:14:07.728Z,1013.42
2016-10-10T04:15:07.962Z,1013.42
2016-10-10T04:16:07.669Z,1013.45
2016-10-10T04:17:08.010Z,1013.45
2016-10-10T04:18:07.833Z,1013.44
2016-10-10T04:19:07.910Z,1013.45
2016-10-10T04:20:07.837Z,1013.44
2016-10-10T04:21:07.782Z,1013.42
2016-10-10T04:22:08.218Z,1013.43
2016-10-10T04:23:07.957Z,1013.45
2016-10-10T04:24:08.116Z,1013.46
2016-10-10T04:25:07.781Z,1013.42
2016-10-10T04:26:07.911Z,1013.48
2016-10-10T04:27:07.857Z,1013.48
2016-10-10T04:28:07.937Z,1013.51
2016-10-10T04:29:08.141Z,1013.48
2016-10-10T04:30:07.882Z,1013.5
2016-10-10T04:31:07.937Z,1013.52
2016-10-10T04:32:08.093Z,1013.53
2016-10-10T04:33:08.116Z,1013.5
2016-10-10T04:34:08.365Z,1013.5
2016-10-10T04:35:08.021Z,1013.52
2016-10-10T04:36:10.528Z,1013.53
2016-10-10T04:37:08.038Z,1013.55
2016-10-10T04:38:08.032Z,1013.55
2016-10-10T04:39:08.205Z,1013.55
2016-10-10T04:40:08.417Z,1013.58
2016-10-10T04:41:08.534Z,1013.58
2016-10-10T04:42:08.261Z,1013.54
2016-10-10T04:43:08.115Z,1013.59
2016-10-10T04:44:08.314Z,1013.62
2016-10-10T04:45:08.088Z,1013.59
2016-10-10T04:46:08.469Z,1013.59
2016-10-10T04:47:08.535Z,1013.59
2016-10-10T04:48:08.335Z,1013.57
2016-10-10T04:49:08.271Z,1013.59
2016-10-10T04:50:08.446Z,1013.6
2016-10-10T04:51:08.331Z,1013.58
2016-10-10T04:52:08.272Z,1013.55
2016-10-10T04:53:08.339Z,1013.57
2016-10-10T04:54:08.355Z,1013.53
2016-10-10T04:55:08.457Z,1013.58
2016-10-10T04:56:08.606Z,1013.56
2016-10-10T04:57:08.487Z,1013.56
2016-10-10T04:58:08.438Z,1013.56
2016-10-10T04:59:08.464Z,1013.55
2016-10-10T05:00:08.907Z,1013.56
2016-10-10T05:01:08.475Z,1013.6
2016-10-10T05:02:09.186Z,1013.57
2016-10-10T05:03:08.748Z,1013.55
2016-10-10T05:04:08.531Z,1013.56
2016-10-10T05:05:08.510Z,1013.56
2016-10-10T05:06:08.552Z,1013.54
2016-10-10T05:07:08.712Z,1013.55
2016-10-10T05:08:08.680Z,1013.51
2016-10-10T05:09:08.799Z,1013.53
2016-10-10T05:10:08.713Z,1013.51
2016-10-10T05:11:08.624Z,1013.51
2016-10-10T05:12:09.117Z,1013.48
2016-10-10T05:13:08.999Z,1013.47
2016-10-10T05:14:08.651Z,1013.49
2016-10-10T05:15:08.662Z,1013.48
2016-10-10T05:16:08.773Z,1013.49
2016-10-10T05:17:08.638Z,1013.52
2016-10-10T05:18:08.719Z,1013.47
2016-10-10T05:19:08.685Z,1013.47
2016-10-10T05:20:08.842Z,1013.47
2016-10-10T05:21:08.952Z,1013.47
2016-10-10T05:22:08.894Z,1013.52
2016-10-10T05:23:08.988Z,1013.47
2016-10-10T05:24:08.972Z,1013.47
2016-10-10T05:25:08.926Z,1013.49
2016-10-10T05:26:08.835Z,1013.44
2016-10-10T05:27:08.985Z,1013.43
2016-10-10T05:28:08.931Z,1013.48
2016-10-10T05:29:09.089Z,1013.49
2016-10-10T05:30:09.028Z,1013.53
2016-10-10T05:31:08.892Z,1013.51
2016-10-10T05:32:09.020Z,1013.48
2016-10-10T05:33:09.179Z,1013.52
2016-10-10T05:34:09.224Z,1013.49
2016-10-10T05:35:09.023Z,1013.53
2016-10-10T05:36:09.104Z,1013.51
2016-10-10T05:37:09.330Z,1013.51
2016-10-10T05:38:09.120Z,1013.51
2016-10-10T05:39:09.379Z,1013.53
2016-10-10T05:40:09.237Z,1013.5
2016-10-10T05:41:09.123Z,1013.48
2016-10-10T05:42:09.033Z,1013.56
2016-10-10T05:44:09.004Z,1013.54
2016-10-10T05:46:09.073Z,1013.51
2016-10-10T05:47:10.664Z,1013.56
2016-10-10T05:48:09.082Z,1013.56
2016-10-10T05:49:10.591Z,1013.54
2016-10-10T05:50:09.883Z,1013.55
2016-10-10T05:51:09.123Z,1013.53
2016-10-10T05:52:09.178Z,1013.55
2016-10-10T05:53:10.428Z,1013.57
2016-10-10T05:54:10.331Z,1013.58
2016-10-10T05:55:09.283Z,1013.57
2016-10-10T05:56:09.320Z,1013.57
2016-10-10T05:57:09.408Z,1013.59
2016-10-10T05:58:09.386Z,1013.6
2016-10-10T05:59:09.581Z,1013.57
2016-10-10T06:00:09.385Z,1013.62
2016-10-10T06:01:09.626Z,1013.61
2016-10-10T06:02:09.930Z,1013.6
2016-10-10T06:03:09.707Z,1013.61
2016-10-10T06:04:09.445Z,1013.59
2016-10-10T06:05:09.461Z,1013.6
2016-10-10T06:06:09.650Z,1013.56
2016-10-10T06:07:09.464Z,1013.61
2016-10-10T06:08:09.492Z,1013.62
2016-10-10T06:09:09.680Z,1013.61
2016-10-10T06:10:09.530Z,1013.59
2016-10-10T06:11:09.474Z,1013.64
2016-10-10T06:12:09.567Z,1013.65
2016-10-10T06:13:09.727Z,1013.62
2016-10-10T06:14:09.605Z,1013.64
2016-10-10T06:15:09.745Z,1013.68
2016-10-10T06:16:09.781Z,1013.7
2016-10-10T06:17:10.014Z,1013.66
2016-10-10T06:18:09.717Z,1013.67
2016-10-10T06:19:09.841Z,1013.64
2016-10-10T06:20:09.958Z,1013.67
2016-10-10T06:21:09.728Z,1013.7
2016-10-10T06:22:09.991Z,1013.64
2016-10-10T06:23:10.116Z,1013.69
2016-10-10T06:24:09.831Z,1013.7
2016-10-10T06:25:10.080Z,1013.7
2016-10-10T06:26:09.872Z,1013.64
2016-10-10T06:27:10.091Z,1013.68
2016-10-10T06:28:09.821Z,1013.7
2016-10-10T06:29:09.880Z,1013.71
2016-10-10T06:30:09.872Z,1013.67
2016-10-10T06:31:09.986Z,1013.69
2016-10-10T06:32:10.028Z,1013.68
2016-10-10T06:33:10.131Z,1013.66
2016-10-10T06:34:09.987Z,1013.68
2016-10-10T06:35:10.011Z,1013.66
2016-10-10T06:36:09.962Z,1013.69
2016-10-10T06:37:10.164Z,1013.68
2016-10-10T06:38:10.298Z,1013.68
2016-10-10T06:39:10.496Z,1013.71
2016-10-10T06:40:10.134Z,1013.67
2016-10-10T06:41:10.012Z,1013.66
2016-10-10T06:42:10.475Z,1013.66
2016-10-10T06:43:10.482Z,1013.68
2016-10-10T06:44:10.098Z,1013.66
2016-10-10T06:45:10.237Z,1013.68
2016-10-10T06:46:10.579Z,1013.68
2016-10-10T06:47:10.251Z,1013.71
2016-10-10T06:48:10.328Z,1013.74
2016-10-10T06:49:10.559Z,1013.7
2016-10-10T06:50:10.204Z,1013.74
2016-10-10T06:51:10.245Z,1013.75
2016-10-10T06:52:10.403Z,1013.76
2016-10-10T06:53:10.368Z,1013.76
2016-10-10T06:54:10.753Z,1013.77
2016-10-10T06:55:10.395Z,1013.77
2016-10-10T06:56:10.715Z,1013.78
2016-10-10T06:57:10.568Z,1013.8
2016-10-10T06:58:10.369Z,1013.8
2016-10-10T06:59:10.524Z,1013.76
2016-10-10T07:00:10.665Z,1013.79
2016-10-10T07:01:10.422Z,1013.8
2016-10-10T07:02:10.404Z,1013.78
2016-10-10T07:03:10.442Z,1013.79
2016-10-10T07:04:10.476Z,1013.78
2016-10-10T07:05:10.427Z,1013.76
2016-10-10T07:06:10.662Z,1013.82
2016-10-10T07:07:10.512Z,1013.75
2016-10-10T07:08:10.594Z,1013.8
2016-10-10T07:09:10.717Z,1013.82
2016-10-10T07:10:10.635Z,1013.81
2016-10-10T07:11:10.631Z,1013.83
2016-10-10T07:12:10.587Z,1013.83
2016-10-10T07:13:10.564Z,1013.82
2016-10-10T07:14:10.651Z,1013.84
2016-10-10T07:15:10.701Z,1013.82
2016-10-10T07:16:10.888Z,1013.85
2016-10-10T07:17:10.573Z,1013.81
2016-10-10T07:18:10.871Z,1013.81
2016-10-10T07:19:10.700Z,1013.78
2016-10-10T07:20:10.830Z,1013.8
2016-10-10T07:21:10.886Z,1013.78
2016-10-10T07:22:10.779Z,1013.78
2016-10-10T07:23:10.809Z,1013.79
2016-10-10T07:24:11.101Z,1013.8
2016-10-10T07:25:10.942Z,1013.77
2016-10-10T07:26:10.744Z,1013.8
2016-10-10T07:27:10.908Z,1013.8
2016-10-10T07:28:10.850Z,1013.82
2016-10-10T07:29:10.952Z,1013.78
2016-10-10T07:30:11.066Z,1013.79
2016-10-10T07:31:11.012Z,1013.79
2016-10-10T07:32:11.101Z,1013.79
2016-10-10T07:33:10.883Z,1013.82
2016-10-10T07:34:10.959Z,1013.76
2016-10-10T07:35:11.122Z,1013.79
2016-10-10T07:36:11.087Z,1013.76
2016-10-10T07:37:11.035Z,1013.8
2016-10-10T07:38:11.256Z,1013.78
2016-10-10T07:39:11.147Z,1013.77
2016-10-10T07:40:11.052Z,1013.77
2016-10-10T07:41:11.311Z,1013.81
2016-10-10T07:42:11.089Z,1013.79
2016-10-10T07:43:11.369Z,1013.77
2016-10-10T07:44:11.220Z,1013.81
2016-10-10T07:45:11.203Z,1013.82
2016-10-10T07:46:11.198Z,1013.84
2016-10-10T07:47:11.167Z,1013.82
2016-10-10T07:48:11.201Z,1013.81
2016-10-10T07:49:11.177Z,1013.82
2016-10-10T07:50:11.415Z,1013.86
2016-10-10T07:51:11.309Z,1013.82
2016-10-10T07:52:11.390Z,1013.85
2016-10-10T07:53:11.291Z,1013.88
2016-10-10T07:54:11.427Z,1013.87
2016-10-10T07:55:11.530Z,1013.87
2016-10-10T07:56:11.448Z,1013.91
2016-10-10T07:57:11.893Z,1013.92
2016-10-10T07:58:11.638Z,1013.89
2016-10-10T07:59:11.801Z,1013.9
2016-10-10T08:00:12.122Z,1013.85
2016-10-10T08:01:11.440Z,1013.91
2016-10-10T08:02:11.583Z,1013.9
2016-10-10T08:03:11.578Z,1013.89
2016-10-10T08:04:11.475Z,1013.94
2016-10-10T08:05:11.600Z,1013.94
2016-10-10T08:06:11.735Z,1013.92
2016-10-10T08:07:11.477Z,1013.94
2016-10-10T08:08:11.552Z,1013.91
2016-10-10T08:09:11.586Z,1013.9
2016-10-10T08:10:11.577Z,1013.91
2016-10-10T08:11:11.598Z,1013.9
2016-10-10T08:12:11.630Z,1013.87
2016-10-10T08:13:11.723Z,1013.87
2016-10-10T08:14:11.861Z,1013.87
2016-10-10T08:15:11.888Z,1013.87
2016-10-10T08:16:11.696Z,1013.87
2016-10-10T08:17:11.706Z,1013.85
2016-10-10T08:18:11.818Z,1013.87
2016-10-10T08:19:11.900Z,1013.85
2016-10-10T08:20:11.704Z,1013.88
2016-10-10T08:21:11.685Z,1013.89
2016-10-10T08:22:11.972Z,1013.86
2016-10-10T08:23:11.792Z,1013.9
2016-10-10T08:24:11.894Z,1013.88
2016-10-10T08:25:11.823Z,1013.87
2016-10-10T08:26:11.862Z,1013.86
2016-10-10T08:27:12.116Z,1013.91
2016-10-10T08:28:11.813Z,1013.86
2016-10-10T08:29:11.884Z,1013.9
2016-10-10T08:30:11.927Z,1013.87
2016-10-10T08:31:11.935Z,1013.88
2016-10-10T08:32:11.924Z,1013.87
2016-10-10T08:33:11.949Z,1013.91
2016-10-10T08:34:12.474Z,1013.88
2016-10-10T08:35:11.925Z,1013.86
2016-10-10T08:36:12.199Z,1013.84
2016-10-10T08:37:12.012Z,1013.85
2016-10-10T08:38:11.973Z,1013.85
2016-10-10T08:39:12.237Z,1013.85
2016-10-10T08:40:12.176Z,1013.87
2016-10-10T08:41:12.337Z,1013.89
2016-10-10T08:42:12.239Z,1013.88
2016-10-10T08:43:12.460Z,1013.88
2016-10-10T08:44:12.421Z,1013.91
2016-10-10T08:45:12.337Z,1013.93
2016-10-10T08:46:12.608Z,1013.94
2016-10-10T08:47:12.191Z,1013.95
2016-10-10T08:48:12.382Z,1013.91
2016-10-10T08:49:12.560Z,1013.94
2016-10-10T08:50:12.346Z,1013.95
2016-10-10T08:51:12.365Z,1013.97
2016-10-10T08:52:12.475Z,1013.97
2016-10-10T08:53:12.337Z,1013.99
2016-10-10T08:54:12.326Z,1013.97
2016-10-10T08:55:12.318Z,1014.02
2016-10-10T08:56:12.495Z,1014
2016-10-10T08:57:12.682Z,1014.04
2016-10-10T08:58:12.655Z,1014.01
2016-10-10T08:59:12.510Z,1013.98
2016-10-10T09:00:12.414Z,1014
2016-10-10T09:01:12.449Z,1014.01
2016-10-10T09:02:12.660Z,1014
2016-10-10T09:03:12.609Z,1014.02
2016-10-10T09:04:12.516Z,1014.01
2016-10-10T09:05:12.528Z,1014
2016-10-10T09:06:12.965Z,1014.01
2016-10-10T09:07:12.756Z,1014.02
2016-10-10T09:08:12.557Z,1014.02
2016-10-10T09:09:12.561Z,1014
2016-10-10T09:10:12.548Z,1014.01
2016-10-10T09:11:12.767Z,1014.03
2016-10-10T09:12:13.115Z,1014.06
2016-10-10T09:13:12.635Z,1014.05
2016-10-10T09:14:12.891Z,1014.04
2016-10-10T09:15:12.632Z,1014.05
2016-10-10T09:16:12.956Z,1014.05
2016-10-10T09:17:13.085Z,1014.05
2016-10-10T09:18:12.819Z,1014.03
2016-10-10T09:19:13.038Z,1014.03
2016-10-10T09:20:12.782Z,1013.99
2016-10-10T09:21:12.928Z,1014.02
2016-10-10T09:22:12.856Z,1014.02
2016-10-10T09:23:13.233Z,1014.07
2016-10-10T09:24:12.988Z,1014.06
2016-10-10T09:25:13.368Z,1014.08
2016-10-10T09:26:13.232Z,1014.08
2016-10-10T09:27:12.906Z,1014.07
2016-10-10T09:28:13.212Z,1014.04
2016-10-10T09:29:12.946Z,1014.02
2016-10-10T09:30:13.488Z,1014
2016-10-10T09:31:13.285Z,1014.01
2016-10-10T09:32:12.927Z,1014.04
2016-10-10T09:33:13.050Z,1014.08
2016-10-10T09:34:13.043Z,1014.07
2016-10-10T09:35:13.225Z,1014.05
2016-10-10T09:36:13.256Z,1014.04
2016-10-10T09:37:13.325Z,1014.06
2016-10-10T09:38:13.268Z,1014.03
2016-10-10T09:39:13.492Z,1014.05
2016-10-10T09:40:13.210Z,1014.05
2016-10-10T09:41:13.356Z,1014.03
2016-10-10T09:42:13.178Z,1014.04
2016-10-10T09:43:13.351Z,1014.04
2016-10-10T09:44:13.435Z,1014.04
2016-10-10T09:45:13.288Z,1014.02
2016-10-10T09:46:13.185Z,1014.05
2016-10-10T09:47:13.334Z,1014.07
2016-10-10T09:48:13.647Z,1014.04
2016-10-10T09:49:13.803Z,1014.06
2016-10-10T09:50:13.527Z,1014.06
2016-10-10T09:51:13.639Z,1014.05
2016-10-10T09:52:13.476Z,1014.09
2016-10-10T09:53:13.533Z,1014.05
2016-10-10T09:54:13.446Z,1014.06
2016-10-10T09:55:13.638Z,1014.1
2016-10-10T09:56:13.558Z,1014.07
2016-10-10T09:57:13.638Z,1014.03
2016-10-10T09:58:14.601Z,1014.01
2016-10-10T09:59:13.809Z,1014.01
2016-10-10T10:00:13.769Z,1014
2016-10-10T10:01:13.572Z,1014.03
2016-10-10T10:02:13.577Z,1014.04
2016-10-10T10:03:13.740Z,1013.98
2016-10-10T10:04:13.572Z,1014.04
2016-10-10T10:05:13.659Z,1014.01
2016-10-10T10:06:13.758Z,1014.01
2016-10-10T10:07:13.731Z,1014.02
2016-10-10T10:08:13.693Z,1014.02
2016-10-10T10:09:13.711Z,1013.97
2016-10-10T10:10:13.688Z,1014.01
2016-10-10T10:11:13.995Z,1013.97
2016-10-10T10:12:13.873Z,1013.93
2016-10-10T10:13:13.801Z,1013.93
2016-10-10T10:14:13.860Z,1013.94
2016-10-10T10:15:13.846Z,1013.96
2016-10-10T10:16:13.916Z,1013.95
2016-10-10T10:17:13.847Z,1013.98
2016-10-10T10:18:13.810Z,1013.91
2016-10-10T10:19:13.973Z,1013.88
2016-10-10T10:20:13.890Z,1013.88
2016-10-10T10:21:13.993Z,1013.89
2016-10-10T10:22:14.253Z,1013.88
2016-10-10T10:23:13.990Z,1013.86
2016-10-10T10:24:14.387Z,1013.83
2016-10-10T10:25:14.083Z,1013.87
2016-10-10T10:26:14.009Z,1013.85
2016-10-10T10:27:14.222Z,1013.87
2016-10-10T10:28:14.292Z,1013.85
2016-10-10T10:29:14.226Z,1013.82
2016-10-10T10:30:14.408Z,1013.83
2016-10-10T10:31:14.209Z,1013.84
2016-10-10T10:32:14.276Z,1013.84
2016-10-10T10:33:14.489Z,1013.83
2016-10-10T10:34:14.492Z,1013.83
2016-10-10T10:35:14.472Z,1013.8
2016-10-10T10:36:14.317Z,1013.79
2016-10-10T10:37:14.547Z,1013.81
2016-10-10T10:38:14.380Z,1013.8
2016-10-10T10:39:14.305Z,1013.83
2016-10-10T10:40:14.400Z,1013.83
2016-10-10T10:41:14.351Z,1013.81
2016-10-10T10:42:14.506Z,1013.79
2016-10-10T10:43:14.450Z,1013.77
2016-10-10T10:44:14.379Z,1013.79
2016-10-10T10:45:14.499Z,1013.77
2016-10-10T10:46:14.484Z,1013.76
2016-10-10T10:47:14.661Z,1013.76
2016-10-10T10:48:14.421Z,1013.73
2016-10-10T10:49:14.389Z,1013.81
2016-10-10T10:50:14.481Z,1013.82
2016-10-10T10:51:14.759Z,1013.78
2016-10-10T10:52:14.598Z,1013.8
2016-10-10T10:53:14.534Z,1013.78
2016-10-10T10:54:14.661Z,1013.78
2016-10-10T10:55:14.571Z,1013.79
2016-10-10T10:56:14.669Z,1013.76
2016-10-10T10:57:14.627Z,1013.72
2016-10-10T10:58:14.780Z,1013.74
2016-10-10T10:59:14.691Z,1013.73
2016-10-10T11:00:14.849Z,1013.71
2016-10-10T11:01:14.834Z,1013.74
2016-10-10T11:02:14.632Z,1013.7
2016-10-10T11:03:14.756Z,1013.72
2016-10-10T11:04:14.983Z,1013.74
2016-10-10T11:05:15.052Z,1013.72
2016-10-10T11:06:15.037Z,1013.71
2016-10-10T11:07:15.087Z,1013.69
2016-10-10T11:08:14.926Z,1013.69
2016-10-10T11:09:14.913Z,1013.62
2016-10-10T11:10:14.858Z,1013.65
2016-10-10T11:11:15.032Z,1013.64
2016-10-10T11:12:15.264Z,1013.61
2016-10-10T11:13:15.003Z,1013.61
2016-10-10T11:14:15.148Z,1013.59
2016-10-10T11:15:15.117Z,1013.58
2016-10-10T11:16:15.095Z,1013.56
2016-10-10T11:17:15.188Z,1013.5
2016-10-10T11:18:15.218Z,1013.52
2016-10-10T11:19:15.147Z,1013.53
2016-10-10T11:20:15.019Z,1013.55
2016-10-10T11:21:15.140Z,1013.54
2016-10-10T11:22:15.238Z,1013.53
2016-10-10T11:23:15.255Z,1013.52
2016-10-10T11:24:15.144Z,1013.52
2016-10-10T11:25:15.459Z,1013.5
2016-10-10T11:26:15.791Z,1013.48
2016-10-10T11:27:15.450Z,1013.45
2016-10-10T11:28:15.209Z,1013.49
2016-10-10T11:29:15.284Z,1013.39
2016-10-10T11:30:15.505Z,1013.39
2016-10-10T11:31:15.550Z,1013.38
2016-10-10T11:32:15.629Z,1013.39
2016-10-10T11:33:15.385Z,1013.34
2016-10-10T11:34:15.611Z,1013.34
2016-10-10T11:35:15.521Z,1013.35
2016-10-10T11:36:16.117Z,1013.37
2016-10-10T11:37:15.552Z,1013.37
2016-10-10T11:38:15.462Z,1013.33
2016-10-10T11:39:15.761Z,1013.34
2016-10-10T11:40:15.543Z,1013.32
2016-10-10T11:41:15.472Z,1013.31
2016-10-10T11:42:15.739Z,1013.28
2016-10-10T11:43:15.516Z,1013.27
2016-10-10T11:44:15.858Z,1013.27
2016-10-10T11:45:15.550Z,1013.27
2016-10-10T11:46:15.946Z,1013.24
2016-10-10T11:47:15.640Z,1013.2
2016-10-10T11:48:15.949Z,1013.2
2016-10-10T11:49:15.611Z,1013.19
2016-10-10T11:50:15.988Z,1013.24
2016-10-10T11:51:16.170Z,1013.22
2016-10-10T11:52:15.888Z,1013.22
2016-10-10T11:53:15.800Z,1013.26
2016-10-10T11:54:15.896Z,1013.22
2016-10-10T11:55:16.023Z,1013.28
2016-10-10T11:56:15.906Z,1013.22
2016-10-10T11:57:16.018Z,1013.21
2016-10-10T11:58:16.355Z,1013.21
2016-10-10T11:59:15.918Z,1013.19
2016-10-10T12:00:16.265Z,1013.17
2016-10-10T12:01:15.948Z,1013.15
2016-10-10T12:02:16.060Z,1013.12
2016-10-10T12:03:15.938Z,1013.16
2016-10-10T12:04:15.943Z,1013.11
2016-10-10T12:05:16.132Z,1013.13
2016-10-10T12:06:16.053Z,1013.1
2016-10-10T12:07:16.158Z,1013.04
2016-10-10T12:08:16.208Z,1013.08
2016-10-10T12:09:16.412Z,1013
2016-10-10T12:10:16.222Z,1012.99